This is the latest recevied weather packets stored in our database for station/object IZ1BLA-10. If no packets are shown the sender has not sent any weather packets the latest 10 day(s).
| Time | Temp. | Humidity | Pressure | Rain* | Wind** | Luminosity | Snow |
|---|---|---|---|---|---|---|---|
| 1778047757 | 10° C | 92% | 1009 hPa | - | - | - | - |
| 1778047157 | 10.56° C | 85% | 1008.9 hPa | - | - | - | - |
| 1778046557 | 11.11° C | 82% | 1008.7 hPa | - | - | - | - |
| 1778045957 | 10.56° C | 87% | 1008.9 hPa | - | - | - | - |
| 1778045357 | 10° C | 87% | 1009 hPa | - | - | - | - |
| 1778044757 | 9.44° C | 90% | 1009.4 hPa | - | - | - | - |
| 1778044157 | 11.67° C | 79% | 1008.5 hPa | - | - | - | - |
| 1778043557 | 11.11° C | 83% | 1008.7 hPa | - | - | - | - |
| 1778042957 | 11.11° C | 83% | 1008.7 hPa | - | - | - | - |
| 1778042357 | 11.11° C | 82% | 1008.9 hPa | - | - | - | - |
| 1778041757 | 11.67° C | 82% | 1008.7 hPa | - | - | - | - |
| 1778041157 | 11.67° C | 84% | 1008.9 hPa | - | - | - | - |
| 1778040557 | 11.67° C | 84% | 1008.7 hPa | - | - | - | - |
| 1778039956 | 12.22° C | 87% | 1009 hPa | - | - | - | - |
| 1778039356 | 11.11° C | 92% | 1009.1 hPa | - | - | - | - |
| 1778038757 | 9.44° C | 10% | - | - | - | - | - |
| 1778038157 | 10° C | 95% | 1009.8 hPa | - | - | - | - |
| 1778037557 | 10.56° C | 93% | 1009.6 hPa | - | - | - | - |
| 1778036957 | 10.56° C | 95% | 1010 hPa | - | - | - | - |
| 1778036357 | 12.22° C | 83% | 1009.2 hPa | - | - | - | - |
| 1778035756 | 10.56° C | 91% | 1010.2 hPa | - | - | - | - |
| 1778035156 | 12.22° C | 85% | 1009.6 hPa | - | - | - | - |
| 1778034556 | 12.22° C | 82% | 1009.6 hPa | - | - | - | - |
| 1778033957 | 13.89° C | 75% | 1009.1 hPa | - | - | - | - |
| 1778033357 | 13.33° C | 78% | 1009.4 hPa | - | - | - | - |
* Rain since midnight (hover to see other rain measurements)
** Current wind speed in m/s (hover to see current wind gust speed)